createdAt,value
2019-03-26T00:01:07.278Z,7.60
2019-03-26T00:03:38.943Z,7.70
2019-03-26T00:06:09.174Z,7.60
2019-03-26T00:08:40.938Z,7.40
2019-03-26T00:11:11.155Z,7.20
2019-03-26T00:13:41.363Z,7.10
2019-03-26T00:16:11.650Z,7.20
2019-03-26T00:18:41.866Z,7.10
2019-03-26T00:21:12.162Z,7.00
2019-03-26T00:23:44.122Z,7.00
2019-03-26T00:26:15.705Z,6.90
2019-03-26T00:28:45.922Z,7.00
2019-03-26T00:31:17.332Z,6.90
2019-03-26T00:33:47.567Z,6.90
2019-03-26T00:36:18.155Z,6.80
2019-03-26T00:38:48.725Z,6.80
2019-03-26T00:41:19.218Z,6.90
2019-03-26T00:43:49.422Z,6.90
2019-03-26T00:46:19.659Z,6.90
2019-03-26T00:48:49.882Z,7.00
2019-03-26T00:51:20.489Z,7.00
2019-03-26T00:53:51.422Z,7.00
2019-03-26T00:56:21.955Z,7.10
2019-03-26T00:58:57.466Z,7.00
2019-03-26T01:01:30.482Z,7.00
2019-03-26T01:04:01.337Z,7.10
2019-03-26T01:06:31.742Z,7.00
2019-03-26T01:09:01.939Z,6.90
2019-03-26T01:11:32.858Z,6.80
2019-03-26T01:14:03.150Z,6.70
2019-03-26T01:16:33.374Z,6.70
2019-03-26T01:19:03.739Z,6.60
2019-03-26T01:21:34.575Z,6.60
2019-03-26T01:24:06.210Z,6.60
2019-03-26T01:26:36.506Z,6.40
2019-03-26T01:29:06.886Z,6.20
2019-03-26T01:31:37.121Z,6.00
2019-03-26T01:34:09.813Z,5.80
2019-03-26T01:36:43.435Z,5.70
2019-03-26T01:39:15.730Z,5.50
2019-03-26T01:41:46.018Z,5.50
2019-03-26T01:44:16.246Z,5.60
2019-03-26T01:46:46.534Z,5.70
2019-03-26T01:49:16.833Z,5.70
2019-03-26T01:51:47.115Z,5.70
2019-03-26T01:54:17.510Z,5.70
2019-03-26T01:56:50.108Z,5.80
2019-03-26T01:59:20.331Z,5.70
2019-03-26T02:01:51.078Z,5.60
2019-03-26T02:04:23.369Z,5.60
2019-03-26T02:06:53.855Z,5.70
2019-03-26T02:09:24.158Z,5.90
2019-03-26T02:11:55.347Z,6.00
2019-03-26T02:14:26.490Z,5.90
2019-03-26T02:16:56.804Z,6.00
2019-03-26T02:19:27.346Z,6.00
2019-03-26T02:21:57.646Z,6.00
2019-03-26T02:24:27.871Z,6.00
2019-03-26T02:26:58.463Z,6.00
2019-03-26T02:29:28.695Z,6.00
2019-03-26T02:32:00.645Z,6.00
2019-03-26T02:34:32.275Z,6.00
2019-03-26T02:37:02.627Z,6.00
2019-03-26T02:39:32.850Z,6.10
2019-03-26T02:42:03.090Z,6.10
2019-03-26T02:44:33.317Z,6.10
2019-03-26T02:47:03.602Z,6.10
2019-03-26T02:49:37.080Z,6.20
2019-03-26T02:52:07.287Z,6.10
2019-03-26T02:54:37.507Z,6.10
2019-03-26T02:57:08.974Z,6.10
2019-03-26T02:59:39.201Z,6.10
2019-03-26T03:02:09.411Z,6.10
2019-03-26T03:04:39.626Z,6.20
2019-03-26T03:07:09.904Z,6.20
2019-03-26T03:09:40.196Z,6.20
2019-03-26T03:12:12.997Z,6.10
2019-03-26T03:14:43.302Z,6.10
2019-03-26T03:17:15.135Z,6.10
2019-03-26T03:19:47.012Z,6.10
2019-03-26T03:22:17.328Z,6.00
2019-03-26T03:24:47.789Z,6.00
2019-03-26T03:27:18.002Z,6.10
2019-03-26T03:29:48.518Z,6.10
2019-03-26T03:32:20.125Z,6.10
2019-03-26T03:34:50.801Z,6.10
2019-03-26T03:37:22.460Z,6.00
2019-03-26T03:39:53.191Z,5.90
2019-03-26T03:42:23.429Z,5.90
2019-03-26T03:44:54.212Z,5.80
2019-03-26T03:47:28.629Z,5.90
2019-03-26T03:50:01.502Z,5.90
2019-03-26T03:52:38.547Z,5.90
2019-03-26T03:55:12.140Z,5.80
2019-03-26T03:57:42.629Z,5.90
2019-03-26T04:00:33.390Z,6.00
2019-03-26T04:03:05.954Z,6.00
2019-03-26T04:05:36.711Z,6.00
2019-03-26T04:08:07.478Z,6.00
2019-03-26T04:10:37.792Z,6.10
2019-03-26T04:13:08.560Z,6.20
2019-03-26T04:15:40.467Z,6.20
2019-03-26T04:18:10.679Z,6.20
2019-03-26T04:20:40.991Z,6.20
2019-03-26T04:23:11.762Z,6.10
2019-03-26T04:25:42.071Z,6.20
2019-03-26T04:28:12.291Z,6.20
2019-03-26T04:30:45.599Z,6.20
2019-03-26T04:33:19.303Z,6.20
2019-03-26T04:35:49.510Z,6.20
2019-03-26T04:38:19.728Z,6.20
2019-03-26T04:40:50.695Z,6.20
2019-03-26T04:43:20.955Z,6.30
2019-03-26T04:45:51.318Z,6.30
2019-03-26T04:48:21.634Z,6.30
2019-03-26T04:50:52.019Z,6.40
2019-03-26T04:53:22.257Z,6.20
2019-03-26T04:55:52.541Z,6.30
2019-03-26T04:58:22.813Z,6.30
2019-03-26T05:00:53.210Z,6.20
2019-03-26T05:03:23.430Z,6.20
2019-03-26T05:05:54.699Z,6.20
2019-03-26T05:08:24.938Z,6.20
2019-03-26T05:10:56.428Z,6.20
2019-03-26T05:13:28.243Z,6.30
2019-03-26T05:15:58.450Z,6.30
2019-03-26T05:18:28.671Z,6.40
2019-03-26T05:20:59.794Z,6.40
2019-03-26T05:23:30.006Z,6.50
2019-03-26T05:26:00.262Z,6.50
2019-03-26T05:28:30.490Z,6.60
2019-03-26T05:31:01.059Z,6.60
2019-03-26T05:33:31.275Z,6.60
2019-03-26T05:36:02.349Z,6.70
2019-03-26T05:38:32.675Z,6.80
2019-03-26T05:41:03.087Z,6.80
2019-03-26T05:43:33.296Z,6.80
2019-03-26T05:46:03.594Z,6.80
2019-03-26T05:48:33.798Z,6.90
2019-03-26T05:51:04.037Z,6.90
2019-03-26T05:53:34.520Z,6.90
2019-03-26T05:56:04.762Z,7.00
2019-03-26T05:58:34.983Z,7.10
2019-03-26T06:01:05.286Z,7.10
2019-03-26T06:03:35.553Z,7.10
2019-03-26T06:06:05.856Z,7.20
2019-03-26T06:08:37.335Z,7.30
2019-03-26T06:11:07.630Z,7.30
2019-03-26T06:13:37.840Z,7.30
2019-03-26T06:16:08.074Z,7.40
2019-03-26T06:18:38.299Z,7.50
2019-03-26T06:21:08.538Z,7.40
2019-03-26T06:23:39.730Z,7.40
2019-03-26T06:26:11.786Z,7.50
2019-03-26T06:28:42.093Z,7.50
2019-03-26T06:31:13.998Z,7.50
2019-03-26T06:33:44.294Z,7.60
2019-03-26T06:36:15.841Z,7.70
2019-03-26T06:38:46.060Z,7.70
2019-03-26T06:41:16.447Z,7.70
2019-03-26T06:43:46.669Z,7.80
2019-03-26T06:46:18.248Z,7.80
2019-03-26T06:48:48.467Z,7.80
2019-03-26T06:51:18.690Z,8.00
2019-03-26T06:53:49.882Z,8.10
2019-03-26T06:56:20.106Z,8.30
2019-03-26T06:58:50.318Z,8.40
2019-03-26T07:01:21.701Z,8.60
2019-03-26T07:03:52.055Z,8.70
2019-03-26T07:06:22.334Z,8.70
2019-03-26T07:08:52.696Z,8.70
2019-03-26T07:11:22.916Z,8.70
2019-03-26T07:13:53.250Z,8.70
2019-03-26T07:16:23.551Z,8.70
2019-03-26T07:18:53.894Z,8.70
2019-03-26T07:21:24.169Z,8.70
2019-03-26T07:23:54.625Z,8.70
2019-03-26T07:26:25.239Z,8.60
2019-03-26T07:28:56.901Z,8.60
2019-03-26T07:31:27.381Z,8.70
2019-03-26T07:33:57.822Z,8.80
2019-03-26T07:36:28.974Z,9.00
2019-03-26T07:39:00.158Z,9.00
2019-03-26T07:41:30.455Z,9.00
2019-03-26T07:44:00.757Z,9.10
2019-03-26T07:46:31.870Z,9.10
2019-03-26T07:49:02.097Z,9.20
2019-03-26T07:51:32.818Z,9.20
2019-03-26T07:54:03.124Z,9.20
2019-03-26T07:56:33.393Z,9.20
2019-03-26T07:59:07.517Z,9.30
2019-03-26T08:01:38.561Z,9.30
2019-03-26T08:04:09.039Z,9.30
2019-03-26T08:06:39.347Z,9.10
2019-03-26T08:09:09.749Z,9.00
2019-03-26T08:11:40.038Z,8.80
2019-03-26T08:14:10.359Z,8.70
2019-03-26T08:16:40.568Z,8.70
2019-03-26T08:19:10.811Z,8.70
2019-03-26T08:21:41.050Z,8.70
2019-03-26T08:24:11.376Z,8.80
2019-03-26T08:26:41.668Z,8.80
2019-03-26T08:29:11.897Z,9.00
2019-03-26T08:31:43.562Z,9.20
2019-03-26T08:34:13.798Z,9.30
2019-03-26T08:36:44.043Z,9.40
2019-03-26T08:39:14.254Z,9.50
2019-03-26T08:41:44.544Z,9.50
2019-03-26T08:44:14.788Z,9.60
2019-03-26T08:46:46.886Z,9.60
2019-03-26T08:49:18.214Z,9.50
2019-03-26T08:51:48.811Z,9.40
2019-03-26T08:54:19.070Z,9.30
2019-03-26T08:56:51.678Z,9.30
2019-03-26T08:59:21.898Z,9.30
2019-03-26T09:01:52.140Z,9.40
2019-03-26T09:04:22.384Z,9.40
2019-03-26T09:06:52.598Z,9.50
2019-03-26T09:09:23.586Z,9.60
2019-03-26T09:11:53.894Z,9.70
2019-03-26T09:14:24.979Z,9.80
2019-03-26T09:16:55.362Z,9.90
2019-03-26T09:19:25.600Z,10.00
2019-03-26T09:21:56.007Z,10.00
2019-03-26T09:24:26.228Z,10.00
2019-03-26T09:26:56.449Z,10.10
2019-03-26T09:29:26.730Z,10.10
2019-03-26T09:31:57.080Z,10.00
2019-03-26T09:34:27.365Z,10.10
2019-03-26T09:36:57.683Z,10.10
2019-03-26T09:39:27.901Z,10.10
2019-03-26T09:41:58.134Z,10.10
2019-03-26T09:44:28.470Z,10.20
2019-03-26T09:46:58.921Z,10.20
2019-03-26T09:49:29.221Z,10.20
2019-03-26T09:51:59.446Z,10.10
2019-03-26T09:54:30.238Z,10.10
2019-03-26T09:57:00.582Z,10.20
2019-03-26T09:59:30.798Z,10.20
2019-03-26T10:02:01.055Z,10.40
2019-03-26T10:04:31.351Z,10.50
2019-03-26T10:07:02.052Z,10.60
2019-03-26T10:09:32.749Z,10.60
2019-03-26T10:12:03.066Z,10.50
2019-03-26T10:14:33.315Z,10.40
2019-03-26T10:17:04.508Z,10.40
2019-03-26T10:19:34.766Z,10.50
2019-03-26T10:22:05.113Z,10.70
2019-03-26T10:24:35.390Z,10.80
2019-03-26T10:27:05.698Z,10.80
2019-03-26T10:29:35.934Z,10.80
2019-03-26T10:32:06.327Z,10.80
2019-03-26T10:34:36.767Z,10.90
2019-03-26T10:37:07.142Z,11.00
2019-03-26T10:39:37.366Z,10.90
2019-03-26T10:42:07.605Z,11.00
2019-03-26T10:44:37.798Z,11.00
2019-03-26T10:47:08.037Z,11.30
2019-03-26T10:49:38.390Z,11.20
2019-03-26T10:52:10.291Z,11.20
2019-03-26T10:54:40.602Z,11.30
2019-03-26T10:57:10.832Z,11.30
2019-03-26T10:59:41.095Z,11.20
2019-03-26T11:02:11.315Z,11.20
2019-03-26T11:04:41.827Z,11.30
2019-03-26T11:07:12.454Z,11.20
2019-03-26T11:09:43.677Z,11.30
2019-03-26T11:12:13.911Z,11.20
2019-03-26T11:14:44.142Z,11.30
2019-03-26T11:17:14.385Z,11.30
2019-03-26T11:19:46.378Z,11.30
2019-03-26T11:22:17.778Z,11.30
2019-03-26T11:24:48.021Z,11.20
2019-03-26T11:27:18.291Z,11.10
2019-03-26T11:29:48.651Z,11.20
2019-03-26T11:32:19.102Z,11.20
2019-03-26T11:34:49.435Z,11.20
2019-03-26T11:37:20.068Z,11.20
2019-03-26T11:39:50.335Z,11.20
2019-03-26T11:42:20.750Z,11.10
2019-03-26T11:44:51.255Z,11.10
2019-03-26T11:47:21.534Z,11.20
2019-03-26T11:49:52.803Z,11.30
2019-03-26T11:52:23.123Z,11.50
2019-03-26T11:54:53.472Z,11.40
2019-03-26T11:57:23.834Z,11.20
2019-03-26T11:59:54.157Z,11.30
2019-03-26T12:02:24.652Z,11.30
2019-03-26T12:04:55.023Z,11.30
2019-03-26T12:07:25.250Z,11.40
2019-03-26T12:09:55.588Z,11.40
2019-03-26T12:12:25.894Z,11.30
2019-03-26T12:14:56.166Z,11.30
2019-03-26T12:17:26.467Z,11.50
2019-03-26T12:19:56.690Z,11.70
2019-03-26T12:22:26.918Z,11.70
2019-03-26T12:24:57.239Z,11.80
2019-03-26T12:27:27.454Z,11.90
2019-03-26T12:29:57.698Z,11.90
2019-03-26T12:32:28.030Z,12.00
2019-03-26T12:34:58.240Z,11.90
2019-03-26T12:37:28.530Z,11.90
2019-03-26T12:40:00.329Z,11.80
2019-03-26T12:42:32.787Z,11.90
2019-03-26T12:45:06.783Z,12.00
2019-03-26T12:47:35.674Z,12.20
2019-03-26T12:50:06.414Z,12.30
2019-03-26T12:52:39.269Z,12.20
2019-03-26T12:55:09.866Z,12.50
2019-03-26T12:57:40.242Z,12.40
2019-03-26T13:00:11.215Z,12.20
2019-03-26T13:02:41.831Z,12.20
2019-03-26T13:05:12.222Z,12.40
2019-03-26T13:07:42.512Z,12.40
2019-03-26T13:10:14.585Z,12.60
2019-03-26T13:12:45.001Z,12.70
2019-03-26T13:15:15.387Z,12.70
2019-03-26T13:17:45.646Z,12.60
2019-03-26T13:20:16.048Z,12.60
2019-03-26T13:22:46.266Z,12.70
2019-03-26T13:25:16.583Z,12.70
2019-03-26T13:27:47.386Z,12.80
2019-03-26T13:30:18.379Z,13.00
2019-03-26T13:32:48.694Z,13.10
2019-03-26T13:35:19.082Z,13.30
2019-03-26T13:37:49.412Z,13.10
2019-03-26T13:40:27.262Z,12.80
2019-03-26T13:42:53.352Z,12.80
2019-03-26T13:45:23.555Z,12.70
2019-03-26T13:47:53.806Z,12.80
2019-03-26T13:50:24.121Z,12.80
2019-03-26T13:52:54.349Z,13.00
2019-03-26T13:55:24.628Z,12.80
2019-03-26T13:57:54.920Z,12.60
2019-03-26T14:00:38.059Z,12.40
2019-03-26T14:03:08.507Z,12.40
2019-03-26T14:05:38.729Z,12.30
2019-03-26T14:08:09.030Z,12.30
2019-03-26T14:10:41.032Z,12.10
2019-03-26T14:13:11.359Z,12.10
2019-03-26T14:15:43.614Z,12.30
2019-03-26T14:18:15.005Z,12.40
2019-03-26T14:20:45.383Z,12.50
2019-03-26T14:23:17.098Z,12.30
2019-03-26T14:25:47.490Z,12.20
2019-03-26T14:28:19.580Z,12.10
2019-03-26T14:30:50.005Z,12.20
2019-03-26T14:33:20.231Z,12.20
2019-03-26T14:35:50.532Z,12.20
2019-03-26T14:38:21.844Z,11.90
2019-03-26T14:40:55.083Z,11.80
2019-03-26T14:43:24.170Z,11.80
2019-03-26T14:45:55.362Z,11.60
2019-03-26T14:48:25.854Z,11.50
2019-03-26T14:50:57.670Z,11.60
2019-03-26T14:53:28.250Z,11.40
2019-03-26T14:55:58.576Z,11.20
2019-03-26T14:58:29.886Z,11.20
2019-03-26T15:01:01.021Z,11.10
2019-03-26T15:03:31.637Z,11.00
2019-03-26T15:06:04.477Z,10.90
2019-03-26T15:08:33.995Z,10.90
2019-03-26T15:11:08.368Z,11.00
2019-03-26T15:13:36.314Z,11.00
2019-03-26T15:16:06.708Z,10.90
2019-03-26T15:18:37.022Z,10.80
2019-03-26T15:21:07.396Z,10.90
2019-03-26T15:23:37.638Z,10.90
2019-03-26T15:26:07.928Z,11.00
2019-03-26T15:28:38.169Z,10.90
2019-03-26T15:31:08.483Z,10.90
2019-03-26T15:33:44.699Z,11.00
2019-03-26T15:36:15.046Z,11.00
2019-03-26T15:38:45.426Z,10.80
2019-03-26T15:41:21.414Z,10.70
2019-03-26T15:43:47.764Z,10.60
2019-03-26T15:46:18.092Z,10.60
2019-03-26T15:48:48.482Z,10.60
2019-03-26T15:51:18.725Z,10.60
2019-03-26T15:53:48.950Z,10.60
2019-03-26T15:56:19.194Z,10.60
2019-03-26T15:58:49.398Z,10.50
2019-03-26T16:01:19.607Z,10.50
2019-03-26T16:03:50.558Z,10.60
2019-03-26T16:06:20.765Z,10.50
2019-03-26T16:08:51.006Z,10.60
2019-03-26T16:11:34.806Z,11.00
2019-03-26T16:13:53.198Z,11.20
2019-03-26T16:16:23.458Z,11.70
2019-03-26T16:18:53.702Z,11.80
2019-03-26T16:21:24.014Z,11.80
2019-03-26T16:23:54.319Z,11.60
2019-03-26T16:26:24.662Z,11.20
2019-03-26T16:28:54.890Z,11.00
2019-03-26T16:31:25.178Z,10.70
2019-03-26T16:33:55.549Z,10.60
2019-03-26T16:36:25.971Z,10.50
2019-03-26T16:38:56.217Z,10.20
2019-03-26T16:41:26.592Z,10.10
2019-03-26T16:43:57.149Z,10.00
2019-03-26T16:46:27.550Z,9.80
2019-03-26T16:48:59.954Z,9.70
2019-03-26T16:51:32.481Z,9.80
2019-03-26T16:54:03.026Z,9.80
2019-03-26T16:56:33.323Z,9.90
2019-03-26T16:59:03.869Z,9.90
2019-03-26T17:01:36.282Z,9.90
2019-03-26T17:04:06.608Z,9.90
2019-03-26T17:06:37.024Z,9.90
2019-03-26T17:09:08.135Z,9.80
2019-03-26T17:11:38.343Z,9.80
2019-03-26T17:14:08.997Z,9.70
2019-03-26T17:16:39.303Z,9.60
2019-03-26T17:19:09.639Z,9.60
2019-03-26T17:21:39.894Z,9.60
2019-03-26T17:24:10.125Z,9.50
2019-03-26T17:26:40.386Z,9.50
2019-03-26T17:29:10.707Z,9.50
2019-03-26T17:31:41.846Z,9.40
2019-03-26T17:34:12.098Z,9.40
2019-03-26T17:36:42.323Z,9.40
2019-03-26T17:39:12.674Z,9.40
2019-03-26T17:41:42.922Z,9.40
2019-03-26T17:44:13.171Z,9.40
2019-03-26T17:46:43.459Z,9.20
2019-03-26T17:49:14.078Z,9.30
2019-03-26T17:51:44.390Z,9.20
2019-03-26T17:54:14.719Z,9.20
2019-03-26T17:56:47.354Z,9.20
2019-03-26T17:59:17.162Z,9.10
2019-03-26T18:01:47.694Z,9.10
2019-03-26T18:04:18.026Z,9.10
2019-03-26T18:06:48.416Z,9.10
2019-03-26T18:09:19.123Z,9.10
2019-03-26T18:11:50.344Z,9.10
2019-03-26T18:14:21.015Z,9.10
2019-03-26T18:16:51.621Z,9.00
2019-03-26T18:19:21.877Z,8.90
2019-03-26T18:21:52.143Z,8.90
2019-03-26T18:24:23.439Z,9.00
2019-03-26T18:26:53.654Z,8.90
2019-03-26T18:29:23.878Z,9.00
2019-03-26T18:31:54.192Z,9.00
2019-03-26T18:34:24.419Z,8.90
2019-03-26T18:36:54.733Z,9.00
2019-03-26T18:39:25.017Z,8.90
2019-03-26T18:41:55.315Z,8.90
2019-03-26T18:44:25.535Z,8.90
2019-03-26T18:46:56.191Z,9.00
2019-03-26T18:49:27.530Z,9.00
2019-03-26T18:51:57.837Z,8.90
2019-03-26T18:54:28.563Z,9.00
2019-03-26T18:56:58.881Z,8.90
2019-03-26T18:59:29.083Z,8.80
2019-03-26T19:01:59.351Z,8.80
2019-03-26T19:04:29.817Z,8.90
2019-03-26T19:07:00.059Z,8.90
2019-03-26T19:09:30.377Z,8.80
2019-03-26T19:12:00.831Z,8.80
2019-03-26T19:14:33.099Z,8.80
2019-03-26T19:17:03.405Z,8.80
2019-03-26T19:19:33.770Z,8.90
2019-03-26T19:22:04.082Z,8.90
2019-03-26T19:24:34.398Z,8.80
2019-03-26T19:27:04.783Z,8.90
2019-03-26T19:29:34.997Z,8.80
2019-03-26T19:32:05.296Z,8.80
2019-03-26T19:34:35.632Z,8.80
2019-03-26T19:37:08.126Z,8.90
2019-03-26T19:39:38.354Z,8.80
2019-03-26T19:42:09.740Z,8.70
2019-03-26T19:44:42.064Z,8.80
2019-03-26T19:47:12.568Z,8.70
2019-03-26T19:49:42.900Z,8.70
2019-03-26T19:52:15.743Z,8.70
2019-03-26T19:54:47.379Z,8.70
2019-03-26T19:57:19.791Z,8.60
2019-03-26T19:59:51.033Z,8.60
2019-03-26T20:02:21.328Z,8.70
2019-03-26T20:04:51.922Z,8.70
2019-03-26T20:07:23.209Z,8.70
2019-03-26T20:09:53.554Z,8.80
2019-03-26T20:12:29.938Z,8.80
2019-03-26T20:15:00.344Z,8.80
2019-03-26T20:17:32.145Z,8.70
2019-03-26T20:20:02.445Z,8.70
2019-03-26T20:22:33.394Z,8.70
2019-03-26T20:25:05.820Z,8.70
2019-03-26T20:27:36.183Z,8.70
2019-03-26T20:30:08.026Z,8.60
2019-03-26T20:32:38.300Z,8.60
2019-03-26T20:35:09.416Z,8.60
2019-03-26T20:37:39.721Z,8.60
2019-03-26T20:40:11.655Z,8.60
2019-03-26T20:42:47.224Z,8.60
2019-03-26T20:45:18.848Z,8.50
2019-03-26T20:47:50.778Z,8.50
2019-03-26T20:50:21.745Z,8.50
2019-03-26T20:52:51.964Z,8.40
2019-03-26T20:55:34.786Z,8.50
2019-03-26T20:58:05.360Z,8.50
2019-03-26T21:00:37.159Z,8.40
2019-03-26T21:03:08.067Z,8.40
2019-03-26T21:05:38.745Z,8.30
2019-03-26T21:08:09.140Z,8.30
2019-03-26T21:10:39.614Z,8.30
2019-03-26T21:13:09.970Z,8.30
2019-03-26T21:15:42.594Z,8.20
2019-03-26T21:18:12.623Z,8.30
2019-03-26T21:20:44.141Z,8.20
2019-03-26T21:23:14.570Z,8.20
2019-03-26T21:25:45.043Z,8.20
2019-03-26T21:28:15.420Z,8.20
2019-03-26T21:30:45.783Z,8.40
2019-03-26T21:33:16.096Z,8.30
2019-03-26T21:35:46.347Z,8.20
2019-03-26T21:38:16.656Z,8.30
2019-03-26T21:40:47.446Z,8.40
2019-03-26T21:43:19.497Z,8.30
2019-03-26T21:45:49.762Z,8.20
2019-03-26T21:48:19.994Z,8.20
2019-03-26T21:50:50.210Z,8.20
2019-03-26T21:53:20.511Z,8.10
2019-03-26T21:56:05.416Z,8.10
2019-03-26T21:58:24.845Z,8.10
2019-03-26T22:00:55.115Z,8.10
2019-03-26T22:03:26.779Z,8.00
2019-03-26T22:05:57.020Z,8.10
2019-03-26T22:08:27.436Z,8.00
2019-03-26T22:10:57.682Z,7.90
2019-03-26T22:13:28.025Z,8.00
2019-03-26T22:15:58.352Z,8.10
2019-03-26T22:18:28.672Z,8.10
2019-03-26T22:21:00.504Z,8.10
2019-03-26T22:23:30.854Z,8.00
2019-03-26T22:26:01.070Z,8.00
2019-03-26T22:28:31.402Z,8.00
2019-03-26T22:31:04.604Z,8.10
2019-03-26T22:33:34.906Z,8.00
2019-03-26T22:36:06.218Z,7.90
2019-03-26T22:38:36.527Z,7.90
2019-03-26T22:41:06.814Z,8.00
2019-03-26T22:43:37.031Z,7.90
2019-03-26T22:46:07.317Z,7.90
2019-03-26T22:48:38.782Z,7.90
2019-03-26T22:51:08.990Z,7.90
2019-03-26T22:53:39.228Z,7.80
2019-03-26T22:56:09.512Z,7.80
2019-03-26T22:58:39.837Z,7.80
2019-03-26T23:01:10.198Z,7.80
2019-03-26T23:03:42.125Z,7.90
2019-03-26T23:06:12.398Z,7.90
2019-03-26T23:08:43.342Z,7.90
2019-03-26T23:11:13.925Z,7.80
2019-03-26T23:13:45.038Z,7.80
2019-03-26T23:16:15.554Z,7.70
2019-03-26T23:18:45.841Z,7.60
2019-03-26T23:21:20.044Z,7.60
2019-03-26T23:23:50.587Z,7.60
2019-03-26T23:26:21.133Z,7.50
2019-03-26T23:28:51.378Z,7.50
2019-03-26T23:31:21.667Z,7.50
2019-03-26T23:33:51.946Z,7.50
2019-03-26T23:36:22.212Z,7.60
2019-03-26T23:38:53.514Z,7.40
2019-03-26T23:41:23.719Z,7.30
2019-03-26T23:43:54.895Z,7.30
2019-03-26T23:46:25.103Z,7.20
2019-03-26T23:48:55.338Z,7.10
2019-03-26T23:51:25.556Z,7.10
2019-03-26T23:53:55.807Z,7.00
2019-03-26T23:56:26.016Z,7.10
2019-03-26T23:58:56.239Z,7.00
